createdAt,value
2023-01-12T00:03:45.445Z,97538.28
2023-01-12T00:08:48.480Z,97557.28
2023-01-12T00:13:50.557Z,97561.53
2023-01-12T00:18:52.428Z,97560.63
2023-01-12T00:23:54.109Z,97560.19
2023-01-12T00:28:55.818Z,97536.03
2023-01-12T00:33:57.635Z,97546.00
2023-01-12T00:38:59.311Z,97537.97
2023-01-12T00:44:19.733Z,97538.91
2023-01-12T00:49:21.489Z,97548.66
2023-01-12T00:54:23.226Z,97551.25
2023-01-12T00:59:24.861Z,97549.59
2023-01-12T01:04:26.637Z,97548.53
2023-01-12T01:09:29.350Z,97552.94
2023-01-12T01:14:31.083Z,97562.16
2023-01-12T01:19:32.954Z,97544.28
2023-01-12T01:24:34.580Z,97558.38
2023-01-12T01:29:36.515Z,97569.28
2023-01-12T01:34:38.156Z,97565.38
2023-01-12T01:39:39.818Z,97562.66
2023-01-12T01:44:44.450Z,97556.75
2023-01-12T01:49:49.361Z,97559.56
2023-01-12T01:54:50.976Z,97557.44
2023-01-12T01:59:55.872Z,97556.97
2023-01-12T02:04:57.798Z,97546.06
2023-01-12T02:09:59.501Z,97543.81
2023-01-12T02:15:19.925Z,97545.38
2023-01-12T02:20:40.571Z,97563.84
2023-01-12T02:26:18.491Z,97560.97
2023-01-12T02:31:38.875Z,97558.50
2023-01-12T02:37:05.437Z,97555.19
2023-01-12T02:42:36.246Z,97553.53
2023-01-12T02:47:56.260Z,97539.34
2023-01-12T02:53:06.380Z,97544.19
2023-01-12T02:58:13.261Z,97538.75
2023-01-12T03:03:17.156Z,97537.66
2023-01-12T03:08:23.687Z,97533.06
2023-01-12T03:13:28.571Z,97536.38
2023-01-12T03:18:38.424Z,97530.94
2023-01-12T03:24:08.801Z,97520.53
2023-01-12T03:29:18.768Z,97510.94
2023-01-12T03:34:20.972Z,97504.06
2023-01-12T03:39:31.583Z,97500.19
2023-01-12T03:44:40.108Z,97499.81
2023-01-12T03:49:50.840Z,97502.78
2023-01-12T03:54:56.924Z,97500.91
2023-01-12T04:00:00.988Z,97499.94
2023-01-12T04:05:02.849Z,97491.19
2023-01-12T04:10:05.428Z,97488.72
2023-01-12T04:15:07.886Z,97490.59
2023-01-12T04:20:10.874Z,97480.78
2023-01-12T04:25:13.750Z,97484.09
2023-01-12T04:30:17.583Z,97484.31
2023-01-12T04:35:19.629Z,97488.94
2023-01-12T04:40:21.396Z,97475.09
2023-01-12T04:45:23.361Z,97468.34
2023-01-12T04:50:25.007Z,97476.50
2023-01-12T04:55:26.838Z,97485.75
2023-01-12T05:00:28.548Z,97491.28
2023-01-12T05:05:32.090Z,97483.13
2023-01-12T05:10:33.720Z,97485.38
2023-01-12T05:15:35.372Z,97471.44
2023-01-12T05:20:37.107Z,97482.66
2023-01-12T05:25:38.857Z,97469.66
2023-01-12T05:30:40.594Z,97464.19
2023-01-12T05:35:42.267Z,97465.84
2023-01-12T05:40:44.351Z,97465.84
2023-01-12T05:45:46.325Z,97457.69
2023-01-12T05:50:48.200Z,97477.81
2023-01-12T05:55:49.916Z,97462.56
2023-01-12T06:00:51.587Z,97467.06
2023-01-12T06:05:58.299Z,97463.25
2023-01-12T06:11:02.210Z,97460.28
2023-01-12T06:16:06.480Z,97461.13
2023-01-12T06:21:09.936Z,97465.63
2023-01-12T06:26:11.871Z,97460.84
2023-01-12T06:31:13.987Z,97476.22
2023-01-12T06:36:15.950Z,97475.75
2023-01-12T06:41:36.078Z,97460.25
2023-01-12T06:46:37.762Z,97464.63
2023-01-12T06:51:39.511Z,97462.97
2023-01-12T06:56:41.287Z,97470.31
2023-01-12T07:01:43.077Z,97458.59
2023-01-12T07:06:44.796Z,97456.34
2023-01-12T07:11:46.489Z,97452.22
2023-01-12T07:16:48.165Z,97442.41
2023-01-12T07:21:50.504Z,97438.59
2023-01-12T07:26:53.786Z,97437.28
2023-01-12T07:31:55.467Z,97423.44
2023-01-12T07:36:57.641Z,97428.75
2023-01-12T07:42:18.001Z,97425.28
2023-01-12T07:47:20.048Z,97420.19
2023-01-12T07:52:21.819Z,97408.00
2023-01-12T07:57:24.181Z,97412.94
2023-01-12T08:02:26.386Z,97407.00
2023-01-12T08:07:32.278Z,97421.78
2023-01-12T08:12:35.886Z,97416.34
2023-01-12T08:17:43.978Z,97419.66
2023-01-12T08:22:51.525Z,97406.63
2023-01-12T08:27:56.006Z,97406.72
2023-01-12T08:33:00.616Z,97401.94
2023-01-12T08:38:02.390Z,97392.88
2023-01-12T08:43:04.134Z,97401.81
2023-01-12T08:48:06.088Z,97395.72
2023-01-12T08:53:10.159Z,97395.03
2023-01-12T08:58:12.453Z,97388.13
2023-01-12T09:03:14.365Z,97387.16
2023-01-12T09:08:16.371Z,97393.28
2023-01-12T09:13:18.143Z,97400.72
2023-01-12T09:18:20.392Z,97396.16
2023-01-12T09:23:22.128Z,97410.44
2023-01-12T09:28:23.857Z,97398.53
2023-01-12T09:33:25.628Z,97396.72
2023-01-12T09:38:27.351Z,97389.44
2023-01-12T09:43:47.761Z,97385.69
2023-01-12T09:48:49.778Z,97379.31
2023-01-12T09:53:51.804Z,97375.88
2023-01-12T09:59:22.385Z,97383.88
2023-01-12T10:04:24.609Z,97380.16
2023-01-12T10:09:26.679Z,97387.94
2023-01-12T10:14:34.432Z,97386.75
2023-01-12T10:19:42.376Z,97390.69
2023-01-12T10:24:45.198Z,97386.59
2023-01-12T10:29:48.148Z,97381.19
2023-01-12T10:34:52.148Z,97391.28
2023-01-12T10:39:54.622Z,97390.78
2023-01-12T10:45:13.279Z,97393.25
2023-01-12T10:50:24.042Z,97382.31
2023-01-12T10:55:31.258Z,97378.03
2023-01-12T11:00:34.125Z,97370.63
2023-01-12T11:05:38.643Z,97367.91
2023-01-12T11:10:40.764Z,97365.41
2023-01-12T11:16:14.706Z,97346.63
2023-01-12T11:21:20.093Z,97341.22
2023-01-12T11:26:28.327Z,97337.13
2023-01-12T11:31:39.514Z,97328.41
2023-01-12T11:36:44.860Z,97316.91
2023-01-12T11:42:13.446Z,97305.97
2023-01-12T11:47:20.460Z,97312.00
2023-01-12T11:52:25.177Z,97307.38
2023-01-12T11:57:33.056Z,97293.97
2023-01-12T12:02:38.812Z,97287.97
2023-01-12T12:07:53.976Z,97266.41
2023-01-12T12:13:15.888Z,97265.66
2023-01-12T12:18:58.433Z,97264.09
2023-01-12T12:24:24.723Z,97260.56
2023-01-12T12:29:57.411Z,97262.53
2023-01-12T12:35:23.180Z,97263.94
2023-01-12T12:40:59.845Z,97252.09
2023-01-12T12:46:13.000Z,97254.91
2023-01-12T12:51:15.997Z,97252.72
2023-01-12T12:56:19.107Z,97251.59
2023-01-12T13:01:20.841Z,97240.06
2023-01-12T13:06:29.293Z,97251.00
2023-01-12T13:11:54.411Z,97245.63
2023-01-12T13:17:01.915Z,97249.47
2023-01-12T13:22:32.200Z,97239.63
2023-01-12T13:28:09.234Z,97233.03
2023-01-12T13:33:15.815Z,97222.59
2023-01-12T13:38:39.470Z,97237.69
2023-01-12T13:43:52.053Z,97231.88
2023-01-12T13:48:55.992Z,97227.97
2023-01-12T13:54:04.225Z,97220.88
2023-01-12T13:59:08.160Z,97217.03
2023-01-12T14:04:20.450Z,97219.25
2023-01-12T14:09:55.847Z,97203.41
2023-01-12T14:15:46.415Z,97207.78
2023-01-12T14:20:56.871Z,97220.91
2023-01-12T14:26:14.747Z,97213.78
2023-01-12T14:31:22.533Z,97209.94
2023-01-12T14:36:30.644Z,97220.88
2023-01-12T14:41:50.988Z,97208.84
2023-01-12T14:46:53.954Z,97199.00
2023-01-12T14:52:01.908Z,97201.16
2023-01-12T14:57:08.283Z,97201.16
2023-01-12T15:02:25.450Z,97195.16
2023-01-12T15:07:33.014Z,97194.38
2023-01-12T15:12:56.819Z,97191.91
2023-01-12T15:18:17.468Z,97186.44
2023-01-12T15:23:42.857Z,97191.91
2023-01-12T15:28:46.007Z,97195.69
2023-01-12T15:33:47.799Z,97184.75
2023-01-12T15:38:49.547Z,97196.22
2023-01-12T15:43:51.231Z,97196.22
2023-01-12T15:48:52.919Z,97191.28
2023-01-12T15:53:54.635Z,97186.34
2023-01-12T15:58:57.769Z,97183.88
2023-01-12T16:04:32.007Z,97175.94
2023-01-12T16:09:22.075Z,97179.75
2023-01-12T16:14:26.448Z,97179.75
2023-01-12T16:19:28.330Z,97165.78
2023-01-12T16:24:32.351Z,97174.81
2023-01-12T16:29:34.079Z,97176.97
2023-01-12T16:34:36.172Z,97187.91
2023-01-12T16:39:37.891Z,97166.56
2023-01-12T16:44:40.395Z,97175.34
2023-01-12T16:49:42.492Z,97172.03
2023-01-12T16:54:44.434Z,97179.19
2023-01-12T16:59:46.827Z,97181.34
2023-01-12T17:04:51.844Z,97166.56
2023-01-12T17:09:54.001Z,97164.38
2023-01-12T17:14:56.520Z,97154.00
2023-01-12T17:19:58.264Z,97169.56
2023-01-12T17:25:00.051Z,97158.38
2023-01-12T17:30:02.289Z,97150.19
2023-01-12T17:35:07.183Z,97149.38
2023-01-12T17:40:09.793Z,97150.19
2023-01-12T17:45:12.426Z,97154.00
2023-01-12T17:50:16.247Z,97156.16
2023-01-12T17:55:18.120Z,97142.75
2023-01-12T18:00:20.166Z,97135.97
2023-01-12T18:05:22.187Z,97137.56
2023-01-12T18:10:24.571Z,97122.84
2023-01-12T18:15:26.877Z,97126.09
2023-01-12T18:20:28.591Z,97114.03
2023-01-12T18:25:30.550Z,97112.97
2023-01-12T18:30:32.410Z,97102.56
2023-01-12T18:35:35.982Z,97096.84
2023-01-12T18:40:37.826Z,97097.41
2023-01-12T18:45:39.683Z,97085.38
2023-01-12T18:51:17.680Z,97088.09
2023-01-12T18:56:19.764Z,97092.25
2023-01-12T19:01:24.790Z,97081.84
2023-01-12T19:06:39.946Z,97073.06
2023-01-12T19:11:41.733Z,97073.91
2023-01-12T19:17:04.756Z,97069.25
2023-01-12T19:22:25.282Z,97062.66
2023-01-12T19:27:45.604Z,97070.81
2023-01-12T19:32:47.324Z,97060.44
2023-01-12T19:37:49.975Z,97040.47
2023-01-12T19:43:10.374Z,97033.63
2023-01-12T19:48:14.249Z,97041.25
2023-01-12T19:53:28.152Z,97038.22
2023-01-12T19:58:30.485Z,97041.75
2023-01-12T20:03:32.402Z,97043.09
2023-01-12T20:08:34.337Z,97039.78
2023-01-12T20:13:36.199Z,97038.44
2023-01-12T20:18:38.232Z,97049.91
2023-01-12T20:23:39.886Z,97047.16
2023-01-12T20:28:41.829Z,97054.25
2023-01-12T20:33:43.610Z,97049.88
2023-01-12T20:38:47.297Z,97044.38
2023-01-12T20:43:49.119Z,97036.16
2023-01-12T20:48:53.279Z,97034.50
2023-01-12T20:53:55.812Z,97037.22
2023-01-12T20:58:58.300Z,97030.09
2023-01-12T21:04:00.274Z,97034.22
2023-01-12T21:09:02.045Z,97024.88
2023-01-12T21:14:04.479Z,97028.44
2023-01-12T21:19:07.457Z,97034.75
2023-01-12T21:24:09.405Z,97027.34
2023-01-12T21:29:11.199Z,97024.88
2023-01-12T21:34:13.195Z,97020.25
2023-01-12T21:39:14.980Z,97021.34
2023-01-12T21:44:16.886Z,97022.41
2023-01-12T21:49:18.712Z,97015.88
2023-01-12T21:54:20.543Z,97003.34
2023-01-12T21:59:22.201Z,97003.34
2023-01-12T22:04:24.087Z,97006.06
2023-01-12T22:09:26.013Z,97007.19
2023-01-12T22:14:27.781Z,97008.59
2023-01-12T22:19:29.470Z,96985.38
2023-01-12T22:24:31.285Z,96993.06
2023-01-12T22:29:32.974Z,96989.22
2023-01-12T22:34:34.652Z,96975.56
2023-01-12T22:39:36.383Z,96978.59
2023-01-12T22:44:38.097Z,96978.91
2023-01-12T22:49:39.759Z,96972.91
2023-01-12T22:54:41.645Z,96979.44
2023-01-12T22:59:43.381Z,96974.56
2023-01-12T23:04:45.122Z,96966.94
2023-01-12T23:09:46.976Z,96974.03
2023-01-12T23:14:48.848Z,96960.94
2023-01-12T23:19:50.648Z,96956.00
2023-01-12T23:24:52.399Z,96958.72
2023-01-12T23:29:54.176Z,96970.50
2023-01-12T23:34:56.284Z,96959.84
2023-01-12T23:39:58.044Z,96957.09
2023-01-12T23:44:59.837Z,96944.00
2023-01-12T23:50:02.446Z,96939.09
2023-01-12T23:55:05.741Z,96938.53
